sensor_id;sensor_type;location;lat;lon;timestamp;pressure;altitude;pressure_sealevel;temperature;humidity
34983;BME280;21187;50.976;13.720;2022-10-16T00:02:28;98028.47;;;18.92;53.10
34983;BME280;21187;50.976;13.720;2022-10-16T00:07:30;98027.03;;;18.81;53.24
34983;BME280;21187;50.976;13.720;2022-10-16T00:12:32;98036.50;;;18.72;53.37
34983;BME280;21187;50.976;13.720;2022-10-16T00:17:34;98036.94;;;18.67;53.43
34983;BME280;21187;50.976;13.720;2022-10-16T00:22:36;98036.22;;;18.59;53.43
34983;BME280;21187;50.976;13.720;2022-10-16T00:27:38;98044.50;;;18.56;53.56
34983;BME280;21187;50.976;13.720;2022-10-16T00:32:39;98039.88;;;18.49;53.49
34983;BME280;21187;50.976;13.720;2022-10-16T00:37:41;98034.03;;;18.43;53.58
34983;BME280;21187;50.976;13.720;2022-10-16T00:42:44;98037.59;;;18.40;53.58
34983;BME280;21187;50.976;13.720;2022-10-16T00:47:47;98043.47;;;18.39;53.85
34983;BME280;21187;50.976;13.720;2022-10-16T00:52:52;98058.34;;;18.41;53.98
34983;BME280;21187;50.976;13.720;2022-10-16T00:57:54;98063.00;;;18.44;54.03
34983;BME280;21187;50.976;13.720;2022-10-16T01:02:59;98052.88;;;18.41;54.13
34983;BME280;21187;50.976;13.720;2022-10-16T01:13:11;98044.94;;;18.51;54.79
34983;BME280;21187;50.976;13.720;2022-10-16T01:18:18;98044.00;;;18.65;54.96
34983;BME280;21187;50.976;13.720;2022-10-16T01:29:20;98060.31;;;18.83;54.42
34983;BME280;21187;50.976;13.720;2022-10-16T01:34:47;98070.03;;;18.91;54.42
34983;BME280;21187;50.976;13.720;2022-10-16T01:39:32;98070.03;;;18.91;54.51
34983;BME280;21187;50.976;13.720;2022-10-16T01:44:38;98081.75;;;18.95;54.52
34983;BME280;21187;50.976;13.720;2022-10-16T01:49:42;98078.22;;;18.98;54.93
34983;BME280;21187;50.976;13.720;2022-10-16T01:54:47;98078.91;;;19.06;54.80
34983;BME280;21187;50.976;13.720;2022-10-16T01:59:54;98079.63;;;19.14;54.74
34983;BME280;21187;50.976;13.720;2022-10-16T02:10:23;98077.16;;;19.23;54.59
34983;BME280;21187;50.976;13.720;2022-10-16T02:15:26;98096.72;;;19.25;54.50
34983;BME280;21187;50.976;13.720;2022-10-16T02:20:34;98085.75;;;19.25;54.66
34983;BME280;21187;50.976;13.720;2022-10-16T02:25:40;98092.84;;;19.22;54.75
34983;BME280;21187;50.976;13.720;2022-10-16T02:31:01;98087.38;;;19.19;54.53
34983;BME280;21187;50.976;13.720;2022-10-16T02:36:05;98091.78;;;19.12;54.40
34983;BME280;21187;50.976;13.720;2022-10-16T02:41:07;98098.44;;;19.11;54.69
34983;BME280;21187;50.976;13.720;2022-10-16T02:46:10;98092.59;;;19.09;54.70
34983;BME280;21187;50.976;13.720;2022-10-16T02:51:12;98084.41;;;19.06;54.96
34983;BME280;21187;50.976;13.720;2022-10-16T02:56:14;98097.34;;;19.05;55.04
34983;BME280;21187;50.976;13.720;2022-10-16T03:01:16;98089.94;;;19.02;54.85
34983;BME280;21187;50.976;13.720;2022-10-16T03:06:18;98078.56;;;19.00;54.77
34983;BME280;21187;50.976;13.720;2022-10-16T03:11:20;98075.88;;;18.97;54.82
34983;BME280;21187;50.976;13.720;2022-10-16T03:16:22;98083.31;;;18.96;54.62
34983;BME280;21187;50.976;13.720;2022-10-16T03:21:24;98097.13;;;18.89;54.78
34983;BME280;21187;50.976;13.720;2022-10-16T03:26:26;98103.38;;;18.86;54.86
34983;BME280;21187;50.976;13.720;2022-10-16T03:31:28;98111.25;;;18.84;55.24
34983;BME280;21187;50.976;13.720;2022-10-16T03:36:30;98097.88;;;18.86;55.27
34983;BME280;21187;50.976;13.720;2022-10-16T03:41:32;98098.69;;;18.90;55.12
34983;BME280;21187;50.976;13.720;2022-10-16T03:46:34;98115.50;;;18.88;55.11
34983;BME280;21187;50.976;13.720;2022-10-16T03:51:36;98122.59;;;18.89;55.33
34983;BME280;21187;50.976;13.720;2022-10-16T03:56:38;98110.44;;;18.90;55.34
34983;BME280;21187;50.976;13.720;2022-10-16T04:01:40;98116.28;;;18.92;55.46
34983;BME280;21187;50.976;13.720;2022-10-16T04:06:42;98124.13;;;18.94;55.46
34983;BME280;21187;50.976;13.720;2022-10-16T04:11:44;98130.78;;;18.93;55.44
34983;BME280;21187;50.976;13.720;2022-10-16T04:16:46;98142.13;;;18.95;55.71
34983;BME280;21187;50.976;13.720;2022-10-16T04:21:48;98149.56;;;18.98;55.54
34983;BME280;21187;50.976;13.720;2022-10-16T04:26:49;98142.91;;;18.99;55.49
34983;BME280;21187;50.976;13.720;2022-10-16T04:31:51;98131.09;;;19.02;55.52
34983;BME280;21187;50.976;13.720;2022-10-16T04:36:53;98142.44;;;19.04;55.52
34983;BME280;21187;50.976;13.720;2022-10-16T04:41:55;98154.19;;;19.08;55.52
34983;BME280;21187;50.976;13.720;2022-10-16T04:46:57;98150.59;;;19.11;55.50
34983;BME280;21187;50.976;13.720;2022-10-16T04:51:59;98147.09;;;19.11;55.44
34983;BME280;21187;50.976;13.720;2022-10-16T04:57:01;98156.91;;;19.08;55.19
34983;BME280;21187;50.976;13.720;2022-10-16T05:02:03;98145.22;;;19.01;55.31
34983;BME280;21187;50.976;13.720;2022-10-16T05:07:05;98148.03;;;18.93;55.33
34983;BME280;21187;50.976;13.720;2022-10-16T05:12:07;98138.28;;;18.85;55.62
34983;BME280;21187;50.976;13.720;2022-10-16T05:17:09;98157.50;;;18.82;55.80
34983;BME280;21187;50.976;13.720;2022-10-16T05:22:10;98157.56;;;18.78;55.75
34983;BME280;21187;50.976;13.720;2022-10-16T05:27:12;98158.31;;;18.78;55.78
34983;BME280;21187;50.976;13.720;2022-10-16T05:32:20;98166.56;;;18.78;55.73
34983;BME280;21187;50.976;13.720;2022-10-16T05:37:22;98174.03;;;18.74;55.81
34983;BME280;21187;50.976;13.720;2022-10-16T05:42:24;98167.00;;;18.73;55.71
34983;BME280;21187;50.976;13.720;2022-10-16T05:47:26;98177.22;;;18.69;55.86
34983;BME280;21187;50.976;13.720;2022-10-16T05:52:29;98183.53;;;18.62;55.82
34983;BME280;21187;50.976;13.720;2022-10-16T05:57:31;98199.59;;;18.64;55.87
34983;BME280;21187;50.976;13.720;2022-10-16T06:02:33;98208.22;;;18.66;55.98
34983;BME280;21187;50.976;13.720;2022-10-16T06:07:35;98193.25;;;18.71;56.12
34983;BME280;21187;50.976;13.720;2022-10-16T06:12:37;98201.47;;;18.78;56.02
34983;BME280;21187;50.976;13.720;2022-10-16T06:17:39;98213.59;;;18.81;56.15
34983;BME280;21187;50.976;13.720;2022-10-16T06:22:41;98220.97;;;18.91;56.14
34983;BME280;21187;50.976;13.720;2022-10-16T06:27:43;98225.75;;;18.79;56.69
34983;BME280;21187;50.976;13.720;2022-10-16T06:32:45;98235.78;;;19.01;56.09
34983;BME280;21187;50.976;13.720;2022-10-16T06:37:47;98222.41;;;19.06;55.98
34983;BME280;21187;50.976;13.720;2022-10-16T06:42:49;98238.84;;;19.14;56.11
34983;BME280;21187;50.976;13.720;2022-10-16T06:47:51;98246.59;;;19.19;56.15
34983;BME280;21187;50.976;13.720;2022-10-16T06:52:53;98246.56;;;19.26;56.25
34983;BME280;21187;50.976;13.720;2022-10-16T06:57:54;98251.91;;;19.40;56.20
34983;BME280;21187;50.976;13.720;2022-10-16T07:02:56;98267.50;;;19.51;56.06
34983;BME280;21187;50.976;13.720;2022-10-16T07:07:58;98257.19;;;19.62;56.05
34983;BME280;21187;50.976;13.720;2022-10-16T07:13:00;98268.13;;;19.69;55.88
34983;BME280;21187;50.976;13.720;2022-10-16T07:18:02;98284.50;;;19.76;55.76
34983;BME280;21187;50.976;13.720;2022-10-16T07:23:04;98293.06;;;19.86;55.46
34983;BME280;21187;50.976;13.720;2022-10-16T07:28:06;98302.44;;;19.92;55.49
34983;BME280;21187;50.976;13.720;2022-10-16T07:33:08;98307.84;;;19.99;55.42
34983;BME280;21187;50.976;13.720;2022-10-16T07:38:10;98320.72;;;20.06;55.33
34983;BME280;21187;50.976;13.720;2022-10-16T07:43:13;98325.41;;;20.13;55.09
34983;BME280;21187;50.976;13.720;2022-10-16T07:48:17;98323.28;;;20.24;55.09
34983;BME280;21187;50.976;13.720;2022-10-16T07:53:19;98338.00;;;20.41;55.06
34983;BME280;21187;50.976;13.720;2022-10-16T07:58:28;98348.06;;;20.55;55.11
34983;BME280;21187;50.976;13.720;2022-10-16T08:03:30;98351.44;;;20.66;54.82
34983;BME280;21187;50.976;13.720;2022-10-16T08:08:32;98326.50;;;20.81;54.80
34983;BME280;21187;50.976;13.720;2022-10-16T08:13:34;98316.88;;;20.96;54.66
34983;BME280;21187;50.976;13.720;2022-10-16T08:18:38;98321.81;;;21.05;54.65
34983;BME280;21187;50.976;13.720;2022-10-16T08:23:41;98319.81;;;21.09;54.61
34983;BME280;21187;50.976;13.720;2022-10-16T08:28:43;98321.25;;;21.17;54.24
34983;BME280;21187;50.976;13.720;2022-10-16T08:33:45;98333.28;;;21.27;53.94
34983;BME280;21187;50.976;13.720;2022-10-16T08:38:49;98348.09;;;21.37;53.60
34983;BME280;21187;50.976;13.720;2022-10-16T08:43:59;98345.16;;;21.48;53.42
34983;BME280;21187;50.976;13.720;2022-10-16T08:49:11;98346.53;;;21.63;52.97
34983;BME280;21187;50.976;13.720;2022-10-16T08:54:36;98354.19;;;21.75;52.88
34983;BME280;21187;50.976;13.720;2022-10-16T08:59:42;98352.78;;;21.87;52.15
34983;BME280;21187;50.976;13.720;2022-10-16T09:04:57;98346.00;;;21.92;52.01
34983;BME280;21187;50.976;13.720;2022-10-16T09:20:45;98334.78;;;22.03;51.95
34983;BME280;21187;50.976;13.720;2022-10-16T09:25:50;98344.75;;;22.17;51.64
34983;BME280;21187;50.976;13.720;2022-10-16T09:30:52;98336.28;;;22.48;51.41
34983;BME280;21187;50.976;13.720;2022-10-16T09:35:56;98336.31;;;22.64;51.03
34983;BME280;21187;50.976;13.720;2022-10-16T09:51:37;98355.56;;;23.04;49.57
34983;BME280;21187;50.976;13.720;2022-10-16T09:56:39;98372.38;;;23.14;48.83
34983;BME280;21187;50.976;13.720;2022-10-16T10:01:51;98355.97;;;23.23;49.01
34983;BME280;21187;50.976;13.720;2022-10-16T10:06:55;98369.41;;;23.21;49.32
34983;BME280;21187;50.976;13.720;2022-10-16T10:12:02;98366.84;;;23.30;49.21
34983;BME280;21187;50.976;13.720;2022-10-16T10:22:26;98386.34;;;23.39;48.10
34983;BME280;21187;50.976;13.720;2022-10-16T10:33:27;98389.66;;;23.51;48.48
34983;BME280;21187;50.976;13.720;2022-10-16T10:38:41;98407.81;;;23.52;47.86
34983;BME280;21187;50.976;13.720;2022-10-16T10:54:32;98423.78;;;24.23;47.16
34983;BME280;21187;50.976;13.720;2022-10-16T11:00:02;98410.06;;;24.49;46.50
34983;BME280;21187;50.976;13.720;2022-10-16T11:10:25;98402.66;;;24.46;46.24
34983;BME280;21187;50.976;13.720;2022-10-16T11:15:35;98410.50;;;24.47;46.20
34983;BME280;21187;50.976;13.720;2022-10-16T11:20:56;98414.38;;;24.50;45.58
34983;BME280;21187;50.976;13.720;2022-10-16T11:26:02;98413.91;;;24.38;45.74
34983;BME280;21187;50.976;13.720;2022-10-16T11:31:29;98418.47;;;24.45;46.23
34983;BME280;21187;50.976;13.720;2022-10-16T11:36:55;98410.59;;;24.43;45.74
34983;BME280;21187;50.976;13.720;2022-10-16T11:42:18;98428.78;;;24.45;46.14
34983;BME280;21187;50.976;13.720;2022-10-16T12:09:32;98444.88;;;25.18;44.50
34983;BME280;21187;50.976;13.720;2022-10-16T12:14:38;98431.69;;;25.22;43.65
34983;BME280;21187;50.976;13.720;2022-10-16T12:30:34;98438.16;;;25.32;43.07
34983;BME280;21187;50.976;13.720;2022-10-16T12:35:43;98452.34;;;25.21;43.37
34983;BME280;21187;50.976;13.720;2022-10-16T12:41:04;98451.53;;;25.20;43.30
34983;BME280;21187;50.976;13.720;2022-10-16T12:51:34;98460.22;;;25.61;42.75
34983;BME280;21187;50.976;13.720;2022-10-16T12:56:59;98466.41;;;25.91;42.19
34983;BME280;21187;50.976;13.720;2022-10-16T13:17:53;98461.34;;;25.51;42.43
34983;BME280;21187;50.976;13.720;2022-10-16T13:28:11;98460.00;;;25.17;42.74
34983;BME280;21187;50.976;13.720;2022-10-16T13:33:25;98460.09;;;25.13;42.98
34983;BME280;21187;50.976;13.720;2022-10-16T13:38:34;98458.41;;;25.03;43.54
34983;BME280;21187;50.976;13.720;2022-10-16T13:43:48;98463.66;;;25.78;43.13
34983;BME280;21187;50.976;13.720;2022-10-16T13:48:58;98454.75;;;28.76;39.41
34983;BME280;21187;50.976;13.720;2022-10-16T13:54:00;98476.91;;;28.61;38.13
34983;BME280;21187;50.976;13.720;2022-10-16T13:59:06;98470.88;;;27.34;39.27
34983;BME280;21187;50.976;13.720;2022-10-16T14:04:23;98471.97;;;26.39;40.71
34983;BME280;21187;50.976;13.720;2022-10-16T14:09:27;98478.63;;;26.06;41.79
34983;BME280;21187;50.976;13.720;2022-10-16T14:14:51;98488.81;;;25.97;42.22
34983;BME280;21187;50.976;13.720;2022-10-16T14:19:58;98490.84;;;25.83;42.13
34983;BME280;21187;50.976;13.720;2022-10-16T14:30:21;98496.50;;;25.67;42.44
34983;BME280;21187;50.976;13.720;2022-10-16T14:35:38;98485.28;;;25.70;42.70
34983;BME280;21187;50.976;13.720;2022-10-16T14:40:47;98491.09;;;25.63;42.99
34983;BME280;21187;50.976;13.720;2022-10-16T14:45:52;98497.19;;;25.58;43.12
34983;BME280;21187;50.976;13.720;2022-10-16T14:50:56;98497.06;;;25.49;43.51
34983;BME280;21187;50.976;13.720;2022-10-16T14:55:58;98512.38;;;25.40;43.57
34983;BME280;21187;50.976;13.720;2022-10-16T15:01:00;98516.38;;;25.39;43.58
34983;BME280;21187;50.976;13.720;2022-10-16T15:06:02;98513.25;;;25.37;43.48
34983;BME280;21187;50.976;13.720;2022-10-16T15:11:04;98521.56;;;25.37;43.25
34983;BME280;21187;50.976;13.720;2022-10-16T15:16:13;98529.88;;;25.37;43.84
34983;BME280;21187;50.976;13.720;2022-10-16T15:21:34;98531.44;;;25.38;43.34
34983;BME280;21187;50.976;13.720;2022-10-16T15:26:35;98548.59;;;25.33;43.61
34983;BME280;21187;50.976;13.720;2022-10-16T15:31:38;98548.25;;;25.31;44.17
34983;BME280;21187;50.976;13.720;2022-10-16T15:36:40;98556.22;;;25.29;44.20
34983;BME280;21187;50.976;13.720;2022-10-16T15:41:44;98562.84;;;25.19;44.34
34983;BME280;21187;50.976;13.720;2022-10-16T15:46:47;98573.81;;;25.09;44.75
34983;BME280;21187;50.976;13.720;2022-10-16T15:51:50;98577.66;;;24.99;45.21
34983;BME280;21187;50.976;13.720;2022-10-16T15:56:55;98572.50;;;24.85;45.22
34983;BME280;21187;50.976;13.720;2022-10-16T16:01:57;98583.94;;;24.70;45.81
34983;BME280;21187;50.976;13.720;2022-10-16T16:06:59;98584.28;;;24.56;46.21
34983;BME280;21187;50.976;13.720;2022-10-16T16:12:03;98587.25;;;24.32;46.58
34983;BME280;21187;50.976;13.720;2022-10-16T16:17:05;98593.31;;;24.11;46.91
34983;BME280;21187;50.976;13.720;2022-10-16T16:22:08;98594.97;;;23.88;47.00
34983;BME280;21187;50.976;13.720;2022-10-16T16:27:13;98593.28;;;23.74;47.06
34983;BME280;21187;50.976;13.720;2022-10-16T16:32:16;98601.84;;;23.63;47.00
34983;BME280;21187;50.976;13.720;2022-10-16T16:37:18;98622.19;;;23.53;46.93
34983;BME280;21187;50.976;13.720;2022-10-16T16:42:20;98635.47;;;23.41;46.99
34983;BME280;21187;50.976;13.720;2022-10-16T16:47:22;98644.03;;;23.27;46.88
34983;BME280;21187;50.976;13.720;2022-10-16T16:52:24;98651.75;;;23.12;47.20
34983;BME280;21187;50.976;13.720;2022-10-16T16:57:26;98661.97;;;22.95;47.20
34983;BME280;21187;50.976;13.720;2022-10-16T17:02:28;98672.53;;;22.76;47.60
34983;BME280;21187;50.976;13.720;2022-10-16T17:07:33;98675.75;;;22.48;48.09
34983;BME280;21187;50.976;13.720;2022-10-16T17:12:36;98685.56;;;22.49;47.95
34983;BME280;21187;50.976;13.720;2022-10-16T17:17:38;98681.59;;;22.50;47.61
34983;BME280;21187;50.976;13.720;2022-10-16T17:22:40;98692.03;;;22.38;47.72
34983;BME280;21187;50.976;13.720;2022-10-16T17:27:42;98693.91;;;22.14;48.06
34983;BME280;21187;50.976;13.720;2022-10-16T17:32:45;98700.50;;;21.93;48.36
34983;BME280;21187;50.976;13.720;2022-10-16T17:37:47;98712.44;;;21.83;48.45
34983;BME280;21187;50.976;13.720;2022-10-16T17:42:49;98705.13;;;21.69;48.61
34983;BME280;21187;50.976;13.720;2022-10-16T17:47:51;98717.91;;;21.52;49.03
34983;BME280;21187;50.976;13.720;2022-10-16T17:52:54;98720.81;;;21.37;49.34
34983;BME280;21187;50.976;13.720;2022-10-16T17:57:58;98727.56;;;21.29;49.63
34983;BME280;21187;50.976;13.720;2022-10-16T18:03:00;98739.41;;;21.26;49.81
34983;BME280;21187;50.976;13.720;2022-10-16T18:08:02;98747.75;;;21.19;49.98
34983;BME280;21187;50.976;13.720;2022-10-16T18:13:04;98755.63;;;21.17;50.28
34983;BME280;21187;50.976;13.720;2022-10-16T18:18:06;98767.00;;;21.22;50.16
34983;BME280;21187;50.976;13.720;2022-10-16T18:23:08;98765.00;;;21.23;50.09
34983;BME280;21187;50.976;13.720;2022-10-16T18:28:12;98763.38;;;21.29;49.92
34983;BME280;21187;50.976;13.720;2022-10-16T18:33:15;98777.91;;;21.33;49.75
34983;BME280;21187;50.976;13.720;2022-10-16T18:38:18;98778.69;;;21.34;49.63
34983;BME280;21187;50.976;13.720;2022-10-16T18:43:20;98786.19;;;21.33;49.46
34983;BME280;21187;50.976;13.720;2022-10-16T18:48:23;98784.25;;;21.30;49.56
34983;BME280;21187;50.976;13.720;2022-10-16T18:53:25;98787.38;;;21.28;49.50
34983;BME280;21187;50.976;13.720;2022-10-16T18:58:33;98773.66;;;21.25;49.62
34983;BME280;21187;50.976;13.720;2022-10-16T19:03:36;98775.72;;;21.14;49.74
34983;BME280;21187;50.976;13.720;2022-10-16T19:08:40;98767.53;;;21.03;49.96
34983;BME280;21187;50.976;13.720;2022-10-16T19:13:44;98775.41;;;21.01;49.90
34983;BME280;21187;50.976;13.720;2022-10-16T19:18:49;98780.94;;;21.01;49.88
34983;BME280;21187;50.976;13.720;2022-10-16T19:23:54;98788.03;;;20.98;50.06
34983;BME280;21187;50.976;13.720;2022-10-16T19:28:58;98788.78;;;21.02;50.17
34983;BME280;21187;50.976;13.720;2022-10-16T19:34:02;98793.91;;;21.04;50.13
34983;BME280;21187;50.976;13.720;2022-10-16T19:39:11;98802.53;;;21.02;50.15
34983;BME280;21187;50.976;13.720;2022-10-16T19:44:15;98812.44;;;20.96;50.26
34983;BME280;21187;50.976;13.720;2022-10-16T19:49:18;98827.03;;;20.89;50.32
34983;BME280;21187;50.976;13.720;2022-10-16T19:54:22;98823.16;;;20.80;50.66
34983;BME280;21187;50.976;13.720;2022-10-16T19:59:24;98825.13;;;20.79;50.50
34983;BME280;21187;50.976;13.720;2022-10-16T20:04:26;98813.72;;;20.77;50.54
34983;BME280;21187;50.976;13.720;2022-10-16T20:09:28;98823.59;;;20.67;51.07
34983;BME280;21187;50.976;13.720;2022-10-16T20:14:29;98823.59;;;20.67;51.08
34983;BME280;21187;50.976;13.720;2022-10-16T20:19:31;98824.41;;;20.71;51.23
34983;BME280;21187;50.976;13.720;2022-10-16T20:24:34;98834.16;;;20.80;51.08
34983;BME280;21187;50.976;13.720;2022-10-16T20:29:37;98828.25;;;20.85;51.46
34983;BME280;21187;50.976;13.720;2022-10-16T20:34:39;98828.63;;;20.87;50.95
34983;BME280;21187;50.976;13.720;2022-10-16T20:39:41;98833.72;;;20.88;50.82
34983;BME280;21187;50.976;13.720;2022-10-16T20:44:44;98842.00;;;20.88;50.90
34983;BME280;21187;50.976;13.720;2022-10-16T20:49:51;98830.56;;;20.90;50.98
34983;BME280;21187;50.976;13.720;2022-10-16T20:54:53;98833.72;;;20.92;51.06
34983;BME280;21187;50.976;13.720;2022-10-16T20:59:55;98847.09;;;20.90;51.01
34983;BME280;21187;50.976;13.720;2022-10-16T21:04:57;98846.75;;;20.81;51.20
34983;BME280;21187;50.976;13.720;2022-10-16T21:09:59;98853.06;;;20.77;51.19
34983;BME280;21187;50.976;13.720;2022-10-16T21:15:01;98863.69;;;20.72;51.14
34983;BME280;21187;50.976;13.720;2022-10-16T21:20:17;98871.63;;;20.59;51.26
34983;BME280;21187;50.976;13.720;2022-10-16T21:25:19;98872.84;;;20.47;51.32
34983;BME280;21187;50.976;13.720;2022-10-16T21:30:20;98879.19;;;20.29;51.79
34983;BME280;21187;50.976;13.720;2022-10-16T21:35:22;98894.56;;;20.13;52.25
34983;BME280;21187;50.976;13.720;2022-10-16T21:40:24;98895.38;;;19.95;52.48
34983;BME280;21187;50.976;13.720;2022-10-16T21:45:26;98894.97;;;19.82;52.60
34983;BME280;21187;50.976;13.720;2022-10-16T21:50:28;98896.94;;;19.71;52.63
34983;BME280;21187;50.976;13.720;2022-10-16T21:55:34;98894.59;;;19.62;52.73
34983;BME280;21187;50.976;13.720;2022-10-16T22:00:35;98892.25;;;19.64;52.78
34983;BME280;21187;50.976;13.720;2022-10-16T22:05:37;98895.38;;;19.73;52.68
34983;BME280;21187;50.976;13.720;2022-10-16T22:10:39;98897.75;;;19.86;52.63
34983;BME280;21187;50.976;13.720;2022-10-16T22:15:47;98885.94;;;19.96;52.50
34983;BME280;21187;50.976;13.720;2022-10-16T22:20:53;98890.66;;;19.99;52.67
34983;BME280;21187;50.976;13.720;2022-10-16T22:26:03;98899.28;;;20.01;52.65
34983;BME280;21187;50.976;13.720;2022-10-16T22:31:11;98902.84;;;19.98;52.69
34983;BME280;21187;50.976;13.720;2022-10-16T22:36:14;98909.50;;;19.97;52.90
34983;BME280;21187;50.976;13.720;2022-10-16T22:41:16;98909.88;;;19.99;52.57
34983;BME280;21187;50.976;13.720;2022-10-16T22:46:21;98903.22;;;20.00;52.64
34983;BME280;21187;50.976;13.720;2022-10-16T22:51:25;98893.78;;;19.94;52.83
34983;BME280;21187;50.976;13.720;2022-10-16T22:56:27;98900.13;;;19.84;52.95
34983;BME280;21187;50.976;13.720;2022-10-16T23:01:33;98904.00;;;19.79;53.28
34983;BME280;21187;50.976;13.720;2022-10-16T23:06:35;98902.81;;;19.80;53.30
34983;BME280;21187;50.976;13.720;2022-10-16T23:11:37;98905.59;;;19.84;53.24
34983;BME280;21187;50.976;13.720;2022-10-16T23:16:39;98906.38;;;19.88;53.07
34983;BME280;21187;50.976;13.720;2022-10-16T23:21:41;98912.66;;;19.88;52.93
34983;BME280;21187;50.976;13.720;2022-10-16T23:26:43;98911.47;;;19.86;53.05
34983;BME280;21187;50.976;13.720;2022-10-16T23:31:45;98916.97;;;19.78;52.92
34983;BME280;21187;50.976;13.720;2022-10-16T23:36:47;98919.69;;;19.71;52.88
34983;BME280;21187;50.976;13.720;2022-10-16T23:41:49;98925.22;;;19.60;52.83
34983;BME280;21187;50.976;13.720;2022-10-16T23:46:51;98928.34;;;19.44;52.99
34983;BME280;21187;50.976;13.720;2022-10-16T23:51:53;98925.97;;;19.32;53.34
34983;BME280;21187;50.976;13.720;2022-10-16T23:56:55;98923.22;;;19.25;53.25
